createdAt,value
2017-12-13T00:01:35.449Z,100896.72
2017-12-13T00:04:04.008Z,100896.06
2017-12-13T00:06:32.424Z,100898.84
2017-12-13T00:09:00.700Z,100884.98
2017-12-13T00:11:29.152Z,100894.55
2017-12-13T00:13:57.531Z,100893.63
2017-12-13T00:16:26.021Z,100892.66
2017-12-13T00:18:54.444Z,100891.52
2017-12-13T00:21:23.016Z,100886.58
2017-12-13T00:23:51.391Z,100896.50
2017-12-13T00:26:19.720Z,100892.48
2017-12-13T00:28:48.090Z,100897.80
2017-12-13T00:31:16.392Z,100893.81
2017-12-13T00:33:44.663Z,100895.20
2017-12-13T00:36:13.034Z,100904.13
2017-12-13T00:38:41.287Z,100906.98
2017-12-13T00:41:09.598Z,100896.53
2017-12-13T00:43:37.884Z,100901.09
2017-12-13T00:46:06.400Z,100904.02
2017-12-13T00:48:34.819Z,100905.48
2017-12-13T00:51:03.117Z,100909.30
2017-12-13T00:53:31.576Z,100912.22
2017-12-13T00:55:59.848Z,100910.67
2017-12-13T00:58:28.137Z,100912.41
2017-12-13T01:00:56.473Z,100912.58
2017-12-13T01:03:24.858Z,100912.13
2017-12-13T01:05:53.203Z,100911.14
2017-12-13T01:08:21.644Z,100908.05
2017-12-13T01:10:49.929Z,100906.59
2017-12-13T01:13:18.184Z,100907.73
2017-12-13T01:15:46.840Z,100914.63
2017-12-13T01:18:15.068Z,100917.48
2017-12-13T01:20:43.345Z,100918.95
2017-12-13T01:23:11.585Z,100921.63
2017-12-13T01:25:39.924Z,100926.42
2017-12-13T01:28:08.168Z,100926.83
2017-12-13T01:30:36.448Z,100928.19
2017-12-13T01:33:05.006Z,100931.17
2017-12-13T01:35:33.325Z,100942.04
2017-12-13T01:38:01.608Z,100942.63
2017-12-13T01:40:30.028Z,100938.34
2017-12-13T01:42:58.674Z,100942.28
2017-12-13T01:45:27.205Z,100941.30
2017-12-13T01:47:55.682Z,100951.21
2017-12-13T01:50:24.115Z,100948.77
2017-12-13T01:52:52.443Z,100944.59
2017-12-13T01:55:20.796Z,100958.00
2017-12-13T01:57:50.100Z,100962.86
2017-12-13T02:00:18.717Z,100960.14
2017-12-13T02:02:47.402Z,100963.23
2017-12-13T02:05:15.673Z,100960.72
2017-12-13T02:07:44.529Z,100968.67
2017-12-13T02:10:13.001Z,100958.11
2017-12-13T02:12:41.261Z,100963.41
2017-12-13T02:15:09.545Z,100961.44
2017-12-13T02:17:37.840Z,100967.17
2017-12-13T02:20:06.109Z,100964.62
2017-12-13T02:22:34.396Z,100971.05
2017-12-13T02:25:02.766Z,100971.01
2017-12-13T02:27:31.132Z,100971.34
2017-12-13T02:29:59.404Z,100974.06
2017-12-13T02:32:27.695Z,100966.91
2017-12-13T02:34:56.016Z,100965.14
2017-12-13T02:37:24.398Z,100967.75
2017-12-13T02:40:01.789Z,100967.98
2017-12-13T02:42:30.173Z,100965.03
2017-12-13T02:44:58.466Z,100964.22
2017-12-13T02:47:26.775Z,100958.78
2017-12-13T02:49:55.056Z,100965.34
2017-12-13T02:52:23.548Z,100962.66
2017-12-13T02:54:51.985Z,100965.38
2017-12-13T02:57:20.277Z,100963.81
2017-12-13T02:59:48.556Z,100962.59
2017-12-13T03:02:17.039Z,100961.67
2017-12-13T03:04:45.316Z,100960.45
2017-12-13T03:07:13.805Z,100956.58
2017-12-13T03:09:42.057Z,100957.91
2017-12-13T03:12:10.452Z,100950.27
2017-12-13T03:14:38.755Z,100952.41
2017-12-13T03:17:07.150Z,100947.66
2017-12-13T03:19:35.464Z,100942.13
2017-12-13T03:22:03.775Z,100932.17
2017-12-13T03:24:32.250Z,100926.78
2017-12-13T03:27:00.577Z,100921.31
2017-12-13T03:29:28.988Z,100918.13
2017-12-13T03:31:57.518Z,100924.41
2017-12-13T03:34:25.817Z,100926.20
2017-12-13T03:36:54.197Z,100922.88
2017-12-13T03:39:22.587Z,100924.98
2017-12-13T03:41:50.914Z,100928.41
2017-12-13T03:44:19.216Z,100933.33
2017-12-13T03:46:47.680Z,100929.56
2017-12-13T03:49:16.060Z,100924.81
2017-12-13T03:51:44.416Z,100924.27
2017-12-13T03:54:12.674Z,100931.05
2017-12-13T03:56:40.969Z,100929.66
2017-12-13T03:59:09.319Z,100931.39
2017-12-13T04:01:37.673Z,100923.78
2017-12-13T04:04:05.965Z,100922.25
2017-12-13T04:06:34.259Z,100919.02
2017-12-13T04:09:02.545Z,100923.05
2017-12-13T04:11:30.824Z,100921.22
2017-12-13T04:13:59.222Z,100928.52
2017-12-13T04:16:27.489Z,100924.68
2017-12-13T04:18:55.785Z,100927.12
2017-12-13T04:21:24.210Z,100926.72
2017-12-13T04:23:52.544Z,100924.68
2017-12-13T04:26:20.830Z,100921.49
2017-12-13T04:28:49.089Z,100917.14
2017-12-13T04:31:17.417Z,100926.24
2017-12-13T04:33:45.777Z,100927.06
2017-12-13T04:36:14.109Z,100928.22
2017-12-13T04:38:42.416Z,100929.38
2017-12-13T04:41:10.914Z,100926.38
2017-12-13T04:43:39.269Z,100929.58
2017-12-13T04:46:07.551Z,100933.05
2017-12-13T04:48:36.000Z,100933.52
2017-12-13T04:51:04.373Z,100925.67
2017-12-13T04:53:32.841Z,100923.03
2017-12-13T04:56:01.203Z,100919.19
2017-12-13T04:58:29.725Z,100915.59
2017-12-13T05:03:54.137Z,100912.34
2017-12-13T05:06:23.266Z,100910.68
2017-12-13T05:08:51.996Z,100911.56
2017-12-13T05:11:21.374Z,100910.34
2017-12-13T05:13:50.724Z,100908.24
2017-12-13T05:16:20.021Z,100902.47
2017-12-13T05:18:48.949Z,100900.94
2017-12-13T05:21:18.021Z,100900.27
2017-12-13T05:23:46.789Z,100898.81
2017-12-13T05:26:15.998Z,100893.17
2017-12-13T05:28:45.096Z,100899.80
2017-12-13T05:31:13.975Z,100899.97
2017-12-13T05:33:43.279Z,100893.14
2017-12-13T05:36:12.745Z,100897.31
2017-12-13T05:38:41.891Z,100898.81
2017-12-13T05:41:10.986Z,100892.98
2017-12-13T05:43:40.148Z,100897.90
2017-12-13T05:46:09.211Z,100896.74
2017-12-13T05:48:38.263Z,100898.00
2017-12-13T05:51:07.126Z,100893.97
2017-12-13T05:53:36.018Z,100891.35
2017-12-13T05:56:05.126Z,100893.83
2017-12-13T05:58:34.083Z,100889.72
2017-12-13T06:01:03.213Z,100891.05
2017-12-13T06:03:32.701Z,100881.95
2017-12-13T06:06:01.421Z,100881.78
2017-12-13T06:08:30.261Z,100880.12
2017-12-13T06:10:59.422Z,100877.44
2017-12-13T06:13:28.562Z,100872.95
2017-12-13T06:15:58.118Z,100873.42
2017-12-13T06:18:26.925Z,100874.23
2017-12-13T06:20:55.902Z,100873.73
2017-12-13T06:23:25.001Z,100881.67
2017-12-13T06:25:54.033Z,100867.55
2017-12-13T06:28:23.390Z,100865.72
2017-12-13T06:30:52.139Z,100864.43
2017-12-13T06:33:21.150Z,100867.55
2017-12-13T06:35:50.081Z,100863.92
2017-12-13T06:38:19.552Z,100870.30
2017-12-13T06:40:49.523Z,100872.27
2017-12-13T06:43:18.570Z,100869.66
2017-12-13T06:45:47.470Z,100866.13
2017-12-13T06:48:16.659Z,100869.42
2017-12-13T06:50:45.582Z,100864.00
2017-12-13T06:53:14.534Z,100864.58
2017-12-13T06:55:43.397Z,100857.96
2017-12-13T06:58:12.728Z,100868.62
2017-12-13T07:00:42.630Z,100866.20
2017-12-13T07:03:11.735Z,100866.85
2017-12-13T07:05:40.798Z,100865.53
2017-12-13T07:08:09.926Z,100868.75
2017-12-13T07:10:38.786Z,100862.75
2017-12-13T07:13:08.232Z,100857.94
2017-12-13T07:15:37.427Z,100852.00
2017-12-13T07:18:06.129Z,100853.15
2017-12-13T07:20:35.154Z,100847.35
2017-12-13T07:23:04.167Z,100846.33
2017-12-13T07:25:32.926Z,100846.60
2017-12-13T07:28:02.030Z,100847.14
2017-12-13T07:30:31.170Z,100845.38
2017-12-13T07:33:00.058Z,100837.86
2017-12-13T07:35:29.270Z,100828.36
2017-12-13T07:37:58.465Z,100832.46
2017-12-13T07:40:27.286Z,100825.23
2017-12-13T07:42:56.136Z,100829.92
2017-12-13T07:45:25.136Z,100828.25
2017-12-13T07:47:54.038Z,100825.80
2017-12-13T07:50:23.089Z,100824.48
2017-12-13T07:52:51.933Z,100818.11
2017-12-13T07:55:21.158Z,100811.92
2017-12-13T07:57:50.204Z,100814.88
2017-12-13T08:00:20.235Z,100812.49
2017-12-13T08:02:49.505Z,100814.81
2017-12-13T08:05:18.717Z,100814.52
2017-12-13T08:07:47.808Z,100812.42
2017-12-13T08:10:16.847Z,100803.09
2017-12-13T08:12:46.527Z,100801.25
2017-12-13T08:15:15.728Z,100801.77
2017-12-13T08:17:44.733Z,100805.47
2017-12-13T08:20:13.894Z,100796.21
2017-12-13T08:22:43.354Z,100785.27
2017-12-13T08:25:12.898Z,100784.52
2017-12-13T08:27:41.999Z,100779.77
2017-12-13T08:30:11.173Z,100779.84
2017-12-13T08:32:40.080Z,100779.13
2017-12-13T08:35:10.014Z,100782.26
2017-12-13T08:37:39.392Z,100777.34
2017-12-13T08:40:08.645Z,100766.33
2017-12-13T08:42:38.651Z,100767.62
2017-12-13T08:45:07.734Z,100754.36
2017-12-13T08:47:37.598Z,100758.17
2017-12-13T08:50:06.931Z,100755.09
2017-12-13T08:52:36.629Z,100754.00
2017-12-13T08:55:05.526Z,100760.27
2017-12-13T08:57:34.633Z,100751.94
2017-12-13T09:00:03.862Z,100743.84
2017-12-13T09:02:32.757Z,100742.78
2017-12-13T09:05:01.603Z,100738.95
2017-12-13T09:07:30.451Z,100739.44
2017-12-13T09:09:59.495Z,100742.48
2017-12-13T09:12:28.342Z,100739.30
2017-12-13T09:14:57.211Z,100737.16
2017-12-13T09:17:26.159Z,100729.41
2017-12-13T09:19:55.012Z,100726.75
2017-12-13T09:22:24.147Z,100720.90
2017-12-13T09:24:53.118Z,100712.16
2017-12-13T09:27:22.471Z,100705.34
2017-12-13T09:29:51.386Z,100698.67
2017-12-13T09:32:20.602Z,100695.05
2017-12-13T09:34:49.601Z,100687.39
2017-12-13T09:37:18.506Z,100680.95
2017-12-13T09:39:47.794Z,100674.98
2017-12-13T09:42:16.843Z,100671.70
2017-12-13T09:44:46.609Z,100666.72
2017-12-13T09:47:15.748Z,100665.16
2017-12-13T09:49:44.927Z,100667.70
2017-12-13T09:52:13.638Z,100661.81
2017-12-13T09:54:42.994Z,100643.28
2017-12-13T09:57:12.291Z,100649.14
2017-12-13T09:59:42.598Z,100646.06
2017-12-13T10:02:11.450Z,100644.88
2017-12-13T10:04:40.490Z,100638.84
2017-12-13T10:07:09.734Z,100643.08
2017-12-13T10:09:38.965Z,100637.05
2017-12-13T10:12:07.870Z,100637.12
2017-12-13T10:14:36.798Z,100631.08
2017-12-13T10:17:05.754Z,100622.17
2017-12-13T10:19:35.082Z,100623.20
2017-12-13T10:22:04.332Z,100613.87
2017-12-13T10:24:33.182Z,100605.67
2017-12-13T10:27:02.577Z,100598.73
2017-12-13T10:29:31.298Z,100597.58
2017-12-13T10:32:00.562Z,100588.14
2017-12-13T10:34:29.428Z,100592.37
2017-12-13T10:36:58.486Z,100575.67
2017-12-13T10:39:27.429Z,100569.84
2017-12-13T10:41:57.722Z,100562.02
2017-12-13T10:44:30.034Z,100554.33
2017-12-13T10:47:01.161Z,100550.81
2017-12-13T10:49:32.887Z,100540.05
2017-12-13T10:52:04.146Z,100534.48
2017-12-13T10:54:33.301Z,100529.41
2017-12-13T10:57:02.495Z,100521.17
2017-12-13T10:59:31.612Z,100517.99
2017-12-13T11:02:00.962Z,100502.89
2017-12-13T11:04:30.985Z,100500.34
2017-12-13T11:07:00.114Z,100494.80
2017-12-13T11:09:29.471Z,100488.66
2017-12-13T11:11:58.775Z,100484.26
2017-12-13T11:14:28.042Z,100463.09
2017-12-13T11:17:02.330Z,100455.50
2017-12-13T11:19:32.238Z,100444.45
2017-12-13T11:22:01.310Z,100437.34
2017-12-13T11:24:30.043Z,100442.20
2017-12-13T11:26:59.706Z,100433.69
2017-12-13T11:29:28.783Z,100433.05
2017-12-13T11:31:58.269Z,100421.59
2017-12-13T11:34:27.126Z,100412.05
2017-12-13T11:37:03.677Z,100406.55
2017-12-13T11:39:32.958Z,100402.50
2017-12-13T11:42:02.331Z,100394.95
2017-12-13T11:44:31.379Z,100387.12
2017-12-13T11:47:00.582Z,100391.28
2017-12-13T11:49:29.666Z,100373.98
2017-12-13T11:51:58.832Z,100376.04
2017-12-13T11:54:32.843Z,100363.53
2017-12-13T11:57:01.969Z,100350.84
2017-12-13T11:59:31.037Z,100348.47
2017-12-13T12:02:00.494Z,100340.95
2017-12-13T12:04:29.835Z,100337.36
2017-12-13T12:06:59.784Z,100328.56
2017-12-13T12:09:28.542Z,100336.81
2017-12-13T12:11:57.810Z,100325.52
2017-12-13T12:14:26.834Z,100321.73
2017-12-13T12:16:56.139Z,100318.35
2017-12-13T12:19:25.241Z,100307.02
2017-12-13T12:21:54.418Z,100302.94
2017-12-13T12:24:23.500Z,100297.98
2017-12-13T12:26:52.473Z,100293.45
2017-12-13T12:29:21.441Z,100295.01
2017-12-13T12:31:51.127Z,100291.68
2017-12-13T12:34:20.372Z,100278.92
2017-12-13T12:36:49.603Z,100268.13
2017-12-13T12:39:19.303Z,100241.41
2017-12-13T12:41:49.066Z,100237.82
2017-12-13T12:44:18.151Z,100230.51
2017-12-13T12:46:47.545Z,100215.47
2017-12-13T12:49:16.275Z,100212.05
2017-12-13T12:51:45.278Z,100208.23
2017-12-13T12:54:14.318Z,100206.98
2017-12-13T12:56:43.406Z,100204.52
2017-12-13T12:59:12.426Z,100200.70
2017-12-13T13:01:42.993Z,100191.91
2017-12-13T13:04:21.632Z,100188.41
2017-12-13T13:06:51.966Z,100179.48
2017-12-13T13:09:23.910Z,100163.52
2017-12-13T13:11:52.790Z,100161.32
2017-12-13T13:14:21.647Z,100147.84
2017-12-13T13:16:51.137Z,100145.41
2017-12-13T13:19:20.167Z,100141.20
2017-12-13T13:21:48.998Z,100142.31
2017-12-13T13:24:18.129Z,100141.60
2017-12-13T13:26:47.010Z,100132.69
2017-12-13T13:29:15.974Z,100131.13
2017-12-13T13:31:44.819Z,100118.52
2017-12-13T13:34:14.056Z,100124.00
2017-12-13T13:36:43.156Z,100113.70
2017-12-13T13:39:12.530Z,100103.74
2017-12-13T13:41:41.990Z,100095.64
2017-12-13T13:44:10.975Z,100099.16
2017-12-13T13:46:40.163Z,100095.30
2017-12-13T13:49:09.153Z,100081.23
2017-12-13T13:51:38.341Z,100076.08
2017-12-13T13:54:07.747Z,100058.67
2017-12-13T13:56:36.690Z,100058.90
2017-12-13T13:59:05.639Z,100049.52
2017-12-13T14:01:36.050Z,100047.36
2017-12-13T14:04:05.358Z,100039.85
2017-12-13T14:06:34.759Z,100040.19
2017-12-13T14:09:04.309Z,100030.30
2017-12-13T14:11:33.317Z,100025.31
2017-12-13T14:14:02.196Z,100017.20
2017-12-13T14:16:31.763Z,100006.49
2017-12-13T14:19:00.451Z,100008.08
2017-12-13T14:21:29.670Z,99995.27
2017-12-13T14:23:59.055Z,99994.81
2017-12-13T14:26:28.619Z,99992.84
2017-12-13T14:28:57.864Z,99991.45
2017-12-13T14:31:26.847Z,99990.47
2017-12-13T14:33:56.467Z,99981.00
2017-12-13T14:36:26.161Z,99982.77
2017-12-13T14:38:55.022Z,99968.61
2017-12-13T14:41:24.152Z,99963.81
2017-12-13T14:43:52.968Z,99958.44
2017-12-13T14:46:21.930Z,99949.83
2017-12-13T14:48:50.901Z,99944.76
2017-12-13T14:51:20.115Z,99942.63
2017-12-13T14:53:49.130Z,99939.08
2017-12-13T14:56:18.312Z,99931.55
2017-12-13T14:58:47.453Z,99924.83
2017-12-13T15:01:16.566Z,99914.69
2017-12-13T15:03:45.454Z,99913.90
2017-12-13T15:06:14.897Z,99899.81
2017-12-13T15:08:43.992Z,99894.39
2017-12-13T15:11:13.041Z,99892.28
2017-12-13T15:13:42.019Z,99880.77
2017-12-13T15:16:11.117Z,99876.37
2017-12-13T15:18:39.961Z,99869.38
2017-12-13T15:21:08.761Z,99862.07
2017-12-13T15:23:37.884Z,99856.34
2017-12-13T15:26:07.244Z,99852.98
2017-12-13T15:28:36.340Z,99842.66
2017-12-13T15:31:05.484Z,99835.35
2017-12-13T15:33:34.350Z,99822.66
2017-12-13T15:36:03.234Z,99824.28
2017-12-13T15:38:32.522Z,99806.67
2017-12-13T15:41:01.387Z,99801.50
2017-12-13T15:43:30.789Z,99789.95
2017-12-13T15:45:59.851Z,99788.19
2017-12-13T15:48:29.598Z,99769.14
2017-12-13T15:50:58.601Z,99776.89
2017-12-13T15:53:27.705Z,99765.77
2017-12-13T15:55:56.918Z,99755.47
2017-12-13T15:58:26.159Z,99754.08
2017-12-13T16:00:54.971Z,99746.94
2017-12-13T16:03:25.854Z,99735.42
2017-12-13T16:05:54.557Z,99727.08
2017-12-13T16:08:23.562Z,99727.67
2017-12-13T16:10:52.566Z,99736.41
2017-12-13T16:13:22.134Z,99727.34
2017-12-13T16:15:51.195Z,99722.11
2017-12-13T16:18:20.616Z,99718.59
2017-12-13T16:20:49.583Z,99714.03
2017-12-13T16:23:18.895Z,99700.72
2017-12-13T16:25:47.751Z,99697.94
2017-12-13T16:28:16.676Z,99690.22
2017-12-13T16:30:45.820Z,99690.80
2017-12-13T16:33:14.586Z,99680.48
2017-12-13T16:35:43.559Z,99680.89
2017-12-13T16:38:12.618Z,99666.99
2017-12-13T16:40:41.558Z,99669.77
2017-12-13T16:43:10.838Z,99665.23
2017-12-13T16:45:39.659Z,99657.11
2017-12-13T16:48:08.940Z,99667.44
2017-12-13T16:50:38.009Z,99654.92
2017-12-13T16:53:07.422Z,99651.73
2017-12-13T16:55:36.509Z,99636.85
2017-12-13T16:58:05.614Z,99628.14
2017-12-13T17:00:34.700Z,99631.70
2017-12-13T17:03:03.889Z,99622.18
2017-12-13T17:05:32.634Z,99620.79
2017-12-13T17:08:01.996Z,99613.44
2017-12-13T17:10:31.499Z,99614.03
2017-12-13T17:13:00.346Z,99604.11
2017-12-13T17:15:29.743Z,99600.13
2017-12-13T17:17:58.529Z,99597.78
2017-12-13T17:20:27.634Z,99582.09
2017-12-13T17:22:57.193Z,99578.13
2017-12-13T17:25:26.375Z,99576.96
2017-12-13T17:27:55.586Z,99562.07
2017-12-13T17:30:24.510Z,99565.25
2017-12-13T17:32:53.486Z,99557.91
2017-12-13T17:35:22.870Z,99552.74
2017-12-13T17:37:51.754Z,99558.70
2017-12-13T17:40:20.670Z,99543.02
2017-12-13T17:42:49.721Z,99537.86
2017-12-13T17:45:19.103Z,99530.72
2017-12-13T17:47:47.919Z,99530.91
2017-12-13T17:50:17.181Z,99512.24
2017-12-13T17:52:46.160Z,99500.53
2017-12-13T17:55:15.200Z,99493.19
2017-12-13T17:57:44.388Z,99483.27
2017-12-13T18:00:14.020Z,99477.24
2017-12-13T18:02:45.176Z,99473.92
2017-12-13T18:05:14.327Z,99468.78
2017-12-13T18:07:43.396Z,99472.77
2017-12-13T18:10:12.247Z,99460.57
2017-12-13T18:12:41.079Z,99466.69
2017-12-13T18:15:09.995Z,99459.12
2017-12-13T18:17:39.202Z,99459.30
2017-12-13T18:20:08.825Z,99453.18
2017-12-13T18:22:38.332Z,99452.19
2017-12-13T18:25:08.454Z,99444.47
2017-12-13T18:27:37.505Z,99431.52
2017-12-13T18:30:06.626Z,99436.88
2017-12-13T18:32:35.779Z,99423.97
2017-12-13T18:35:04.830Z,99423.21
2017-12-13T18:37:34.742Z,99412.06
2017-12-13T18:40:04.011Z,99413.03
2017-12-13T18:42:33.062Z,99407.88
2017-12-13T18:45:01.775Z,99395.76
2017-12-13T18:47:31.744Z,99388.38
2017-12-13T18:50:00.738Z,99387.00
2017-12-13T18:52:29.766Z,99375.14
2017-12-13T18:54:58.986Z,99378.47
2017-12-13T18:57:28.938Z,99369.33
2017-12-13T18:59:57.997Z,99359.41
2017-12-13T19:02:27.557Z,99358.00
2017-12-13T19:04:57.645Z,99354.62
2017-12-13T19:07:27.596Z,99343.05
2017-12-13T19:09:56.469Z,99334.92
2017-12-13T19:12:26.586Z,99336.50
2017-12-13T19:14:56.061Z,99335.92
2017-12-13T19:17:25.169Z,99325.73
2017-12-13T19:19:53.870Z,99323.99
2017-12-13T19:22:22.718Z,99325.77
2017-12-13T19:24:51.839Z,99314.62
2017-12-13T19:27:21.153Z,99304.50
2017-12-13T19:29:50.141Z,99300.71
2017-12-13T19:32:19.978Z,99297.33
2017-12-13T19:34:48.860Z,99295.52
2017-12-13T19:37:17.975Z,99293.55
2017-12-13T19:39:46.883Z,99280.17
2017-12-13T19:42:15.890Z,99275.00
2017-12-13T19:44:45.559Z,99269.64
2017-12-13T19:47:14.922Z,99269.84
2017-12-13T19:49:44.216Z,99257.32
2017-12-13T19:52:13.800Z,99253.34
2017-12-13T19:54:42.875Z,99254.95
2017-12-13T19:57:11.761Z,99239.66
2017-12-13T19:59:40.790Z,99240.10
2017-12-13T20:02:12.096Z,99222.77
2017-12-13T20:04:41.454Z,99230.09
2017-12-13T20:07:10.150Z,99218.58
2017-12-13T20:09:38.975Z,99219.75
2017-12-13T20:12:08.261Z,99210.61
2017-12-13T20:14:37.652Z,99204.86
2017-12-13T20:17:07.160Z,99207.42
2017-12-13T20:19:36.249Z,99202.69
2017-12-13T20:22:04.934Z,99197.10
2017-12-13T20:24:34.022Z,99187.35
2017-12-13T20:27:03.485Z,99186.57
2017-12-13T20:29:32.302Z,99178.83
2017-12-13T20:32:01.502Z,99173.13
2017-12-13T20:34:30.291Z,99171.04
2017-12-13T20:36:59.271Z,99162.11
2017-12-13T20:39:28.359Z,99157.17
2017-12-13T20:41:57.276Z,99151.83
2017-12-13T20:44:26.386Z,99146.68
2017-12-13T20:46:55.323Z,99139.97
2017-12-13T20:49:24.327Z,99131.61
2017-12-13T20:51:53.251Z,99124.86
2017-12-13T20:54:22.152Z,99124.89
2017-12-13T20:56:51.498Z,99113.17
2017-12-13T20:59:20.254Z,99109.98
2017-12-13T21:01:49.232Z,99104.20
2017-12-13T21:04:19.352Z,99093.49
2017-12-13T21:06:49.155Z,99088.52
2017-12-13T21:09:18.560Z,99077.78
2017-12-13T21:11:48.030Z,99071.80
2017-12-13T21:14:17.139Z,99070.63
2017-12-13T21:16:45.990Z,99053.73
2017-12-13T21:19:15.287Z,99058.71
2017-12-13T21:21:44.262Z,99037.02
2017-12-13T21:24:13.316Z,99036.22
2017-12-13T21:26:42.710Z,99027.08
2017-12-13T21:29:11.498Z,99018.50
2017-12-13T21:31:40.863Z,99006.20
2017-12-13T21:34:14.015Z,99000.80
2017-12-13T21:36:43.399Z,98988.08
2017-12-13T21:39:12.616Z,98969.73
2017-12-13T21:41:41.454Z,98972.14
2017-12-13T21:44:10.579Z,98961.41
2017-12-13T21:46:40.261Z,98948.44
2017-12-13T21:49:09.236Z,98946.27
2017-12-13T21:51:38.176Z,98941.96
2017-12-13T21:54:07.170Z,98919.30
2017-12-13T21:56:36.292Z,98909.77
2017-12-13T21:59:05.078Z,98908.20
2017-12-13T22:01:34.275Z,98903.81
2017-12-13T22:04:03.439Z,98888.91
2017-12-13T22:06:32.628Z,98900.44
2017-12-13T22:09:01.625Z,98889.13
2017-12-13T22:11:30.434Z,98881.75
2017-12-13T22:13:59.550Z,98867.28
2017-12-13T22:16:28.631Z,98875.03
2017-12-13T22:18:57.944Z,98874.42
2017-12-13T22:21:26.754Z,98860.70
2017-12-13T22:23:55.576Z,98861.12
2017-12-13T22:26:24.390Z,98848.60
2017-12-13T22:28:53.282Z,98845.25
2017-12-13T22:31:22.601Z,98842.42
2017-12-13T22:33:53.383Z,98840.63
2017-12-13T22:36:22.602Z,98830.70
2017-12-13T22:38:51.382Z,98822.34
2017-12-13T22:41:20.417Z,98811.61
2017-12-13T22:43:49.178Z,98803.87
2017-12-13T22:46:18.355Z,98793.34
2017-12-13T22:48:47.295Z,98790.00
2017-12-13T22:51:16.872Z,98773.31
2017-12-13T22:53:45.690Z,98776.71
2017-12-13T22:56:14.520Z,98777.33
2017-12-13T22:58:43.523Z,98766.37
2017-12-13T23:01:12.560Z,98762.38
2017-12-13T23:03:41.659Z,98753.07
2017-12-13T23:06:10.962Z,98744.92
2017-12-13T23:08:39.660Z,98731.62
2017-12-13T23:11:08.940Z,98722.95
2017-12-13T23:13:38.055Z,98713.02
2017-12-13T23:16:06.938Z,98713.19
2017-12-13T23:18:35.740Z,98705.25
2017-12-13T23:21:04.862Z,98700.69
2017-12-13T23:23:34.005Z,98692.16
2017-12-13T23:26:03.029Z,98674.28
2017-12-13T23:28:32.406Z,98663.38
2017-12-13T23:31:01.496Z,98663.56
2017-12-13T23:33:30.392Z,98654.07
2017-12-13T23:35:59.106Z,98644.91
2017-12-13T23:38:27.885Z,98643.94
2017-12-13T23:40:56.805Z,98636.40
2017-12-13T23:43:25.819Z,98618.72
2017-12-13T23:45:54.599Z,98607.80
2017-12-13T23:48:23.736Z,98581.98
2017-12-13T23:50:52.615Z,98573.25
2017-12-13T23:53:21.456Z,98574.22
2017-12-13T23:55:50.466Z,98575.80
2017-12-13T23:58:19.215Z,98565.85
